Latest Weather Observations for Bunbury

IDW60801

Issued at 1:05 pm WST Monday 24 November 2014 (issued every 30 minutes, with the page automatically refreshed every 10 minutes)

About weather observations | Map of weather stations | Latest weather observations for WA | Other Formats
Station Details ID: 009965 Name: BUNBURY Lat: -33.36 Lon: 115.64 Height: 5.2 m
Data from the previous 72 hours. | See also: Recent months at Bunbury
Date/Time
WST
Temp
°C
App
Temp
°C
Dew
Point
Rel
Hum
%
Delta-T
°C
Wind Press
QNH
hPa
Press
MSL
hPa
Rain
since 9 am
mm
Dir
 
Spd
km/h
Gust
km/h
Spd
kts
Gust
kts
24/01:00pm 21.5 19.1 8.7 44 6.8 W 11 26 6 14 - 1022.6 0.0
24/12:30pm 22.6 20.3 5.5 33 8.6 E 7 20 4 11 - 1022.8 0.0
24/12:00pm 22.4 19.1 6.2 35 8.2 S 13 24 7 13 - 1023.0 0.0
24/11:30am 21.4 18.8 6.1 37 7.7 SE 9 20 5 11 - 1023.3 0.0
24/11:00am 21.8 18.8 7.6 40 7.4 SE 13 20 7 11 - 1023.4 0.0
24/10:30am 20.1 16.7 5.7 39 7.1 ESE 13 22 7 12 - 1009.6 0.0
24/10:00am 19.1 16.1 6.2 43 6.4 ESE 11 19 6 10 - 1023.6 0.0
24/09:30am 18.4 14.3 6.3 45 6.0 SE 17 26 9 14 - 1023.5 0.0
24/09:00am 17.6 13.6 6.8 49 5.4 SE 17 24 9 13 - 1023.6 0.0
24/08:30am 16.8 12.2 6.3 50 5.1 E 20 28 11 15 - 1023.5 0.0
24/08:00am 15.9 12.1 7.4 57 4.2 ESE 17 22 9 12 - 1023.4 0.0
24/07:30am 14.7 12.0 7.5 62 3.6 SE 11 15 6 8 - 1023.1 0.0
24/07:00am 12.9 10.6 7.4 69 2.7 ESE 9 13 5 7 - 1022.7 0.0
24/06:30am 11.2 8.6 6.3 72 2.3 SE 9 13 5 7 - 1022.4 0.0
24/06:00am 9.8 7.2 6.3 79 1.6 SE 9 15 5 8 - 1023.3 0.0
24/05:30am 6.2 4.2 4.4 88 0.8 SSW 4 6 2 3 - 1022.0 0.0
24/05:00am 6.0 4.7 4.2 88 0.8 CALM 0 4 0 2 - 1021.6 0.0
24/04:30am 5.7 3.0 2.9 82 1.2 SSE 6 7 3 4 - 1022.9 0.0
24/04:00am 6.5 3.8 3.8 83 1.1 ESE 7 7 4 4 - 1020.9 0.0
24/03:30am 8.3 5.4 4.7 78 1.6 SE 9 13 5 7 - 1020.7 0.0
24/03:00am 8.0 5.6 4.4 78 1.6 SSE 6 9 3 5 - 1022.4 0.0
24/02:30am 8.5 5.6 4.7 77 1.7 SSE 9 13 5 7 - 1020.5 0.0
24/02:00am 8.4 6.1 4.8 78 1.6 S 6 7 3 4 - 1020.2 0.0
24/01:30am 8.7 6.7 4.3 74 1.9 SSE 4 7 2 4 - 1020.4 0.0
24/01:00am 9.5 7.0 4.7 72 2.1 SSE 7 11 4 6 - 1020.5 0.0
24/12:30am 9.1 6.8 4.9 75 1.9 S 6 7 3 4 - 1020.5 0.0
24/12:00am 9.4 7.1 4.6 72 2.1 S 6 7 3 4 - 1020.5 0.0
 
Date/Time
WST
Temp
°C
App
Temp
°C
Dew
Point
Rel
Hum
%
Delta-T
°C
Wind Press
QNH
hPa
Press
MSL
hPa
Rain
since 9 am
mm
Dir
 
Spd
km/h
Gust
km/h
Spd
kts
Gust
kts
23/11:30pm 10.4 8.1 4.8 68 2.5 S 6 9 3 5 - 1020.5 0.0
23/11:00pm 10.7 8.4 5.0 68 2.6 SSE 6 9 3 5 - 1020.4 0.0
23/10:30pm 11.3 8.6 5.4 67 2.7 S 9 13 5 7 - 1020.4 0.0
23/10:00pm 11.7 8.5 5.3 65 2.9 S 11 17 6 9 - 1020.3 0.0
23/09:30pm 12.2 8.7 5.6 64 3.1 S 13 20 7 11 - 1020.4 0.0
23/09:00pm 12.7 9.6 5.6 62 3.3 S 11 15 6 8 - 1020.3 0.0
23/08:30pm 13.3 9.5 5.7 60 3.6 S 15 20 8 11 - 1019.9 0.0
23/08:00pm 13.9 10.1 6.0 59 3.8 S 15 22 8 12 - 1019.4 0.0
23/07:30pm 14.8 10.7 6.1 56 4.2 S 17 24 9 13 - 1019.0 0.0
23/07:00pm 15.8 11.2 6.3 53 4.6 S 20 30 11 16 - 1018.5 0.0
23/06:30pm 16.9 11.8 6.1 49 5.3 S 22 33 12 18 - 1018.0 0.0
23/06:00pm 18.0 13.1 6.8 48 5.6 S 22 30 12 16 - 1019.4 0.0
23/05:30pm 19.1 14.7 7.2 46 6.0 S 20 32 11 17 - 1016.8 0.0
23/05:00pm 20.0 15.1 6.7 42 6.7 SSW 22 32 12 17 - 1016.3 0.0
23/04:30pm 20.8 16.8 9.1 47 6.2 WSW 20 33 11 18 - 1018.0 0.0
23/04:00pm 20.6 16.4 8.3 45 6.4 WSW 20 32 11 17 - 1015.7 0.0
23/03:30pm 20.9 15.9 8.2 44 6.6 WSW 24 33 13 18 - 1015.3 0.0
23/03:00pm 20.2 15.4 8.8 48 6.0 WSW 24 37 13 20 - 1008.6 0.0
23/02:30pm 21.2 16.4 8.8 45 6.6 WSW 24 41 13 22 - 1015.0 0.0
23/02:00pm 20.8 16.4 8.8 46 6.3 WSW 22 30 12 16 - 1014.9 0.0
23/01:30pm 21.0 16.8 8.3 44 6.6 WSW 20 33 11 18 - 1014.8 0.0
23/01:00pm 20.2 15.5 7.9 45 6.4 WSW 22 33 12 18 - 1014.8 0.0
23/12:30pm 21.0 16.8 8.3 44 6.6 WSW 20 32 11 17 - 1014.7 0.0
23/12:00pm 20.9 17.0 8.5 45 6.5 WSW 19 32 10 17 - 1014.7 0.0
23/11:30am 19.7 15.6 8.7 49 5.7 SW 20 33 11 18 - 1014.6 0.0
23/11:00am 20.0 15.7 8.0 46 6.2 WSW 20 30 11 16 - 1014.7 0.0
23/10:30am 19.6 15.3 7.0 44 6.4 WSW 19 32 10 17 - 1014.8 0.0
23/10:00am 18.3 14.0 8.0 51 5.3 SW 20 30 11 16 - 1014.5 0.0
23/09:30am 19.4 16.2 8.4 49 5.7 SSW 15 22 8 12 - 1014.5 0.0
23/09:00am 18.4 15.8 9.2 55 4.8 SW 13 24 7 13 - 1014.5 0.0
23/08:30am 17.9 14.0 9.3 57 4.5 S 20 32 11 17 - 1014.4 0.0
23/08:00am 17.6 14.8 10.0 61 4.0 SSW 15 26 8 14 - 1014.2 0.0
23/07:30am 16.4 13.4 10.7 69 3.0 S 17 22 9 12 - 1016.7 0.0
23/07:00am 15.9 13.3 10.7 71 2.8 SSW 15 22 8 12 - 1013.7 0.0
23/06:30am 15.2 13.7 10.6 74 2.4 SSW 9 13 5 7 - 1015.3 0.0
23/06:00am 14.7 11.7 10.5 76 2.2 S 17 24 9 13 - 1013.0 0.0
23/05:30am 16.4 13.6 10.0 66 3.4 SSW 15 20 8 11 - 1012.5 0.0
23/05:00am 16.7 13.9 9.9 64 3.6 SW 15 24 8 13 - 1012.5 0.0
23/04:30am 16.8 13.4 9.2 61 3.9 SW 17 28 9 15 - 1012.3 0.0
23/04:00am 16.4 13.7 10.3 67 3.2 SW 15 22 8 12 - 1012.0 0.0
23/03:30am 16.4 14.9 10.5 68 3.1 WSW 9 19 5 10 - 1011.6 0.0
23/03:00am 15.9 13.4 10.9 72 2.7 WSW 15 24 8 13 - 1011.5 0.0
23/02:30am 16.6 14.2 10.0 65 3.5 SW 13 22 7 12 - 1011.4 0.0
23/02:00am 16.5 13.7 9.9 65 3.5 SW 15 24 8 13 - 1011.3 0.0
23/01:30am 16.1 14.2 10.6 70 2.9 S 11 17 6 9 - 1011.3 0.0
23/01:00am 16.3 14.0 10.6 69 3.0 SSW 13 17 7 9 - 1011.4 0.0
23/12:30am 16.7 15.2 10.5 67 3.3 WSW 9 19 5 10 - 1014.4 0.0
23/12:00am 16.6 14.1 9.8 64 3.6 WSW 13 22 7 12 - 1011.6 0.0
 
Date/Time
WST
Temp
°C
App
Temp
°C
Dew
Point
Rel
Hum
%
Delta-T
°C
Wind Press
QNH
hPa
Press
MSL
hPa
Rain
since 9 am
mm
Dir
 
Spd
km/h
Gust
km/h
Spd
kts
Gust
kts
22/11:30pm 17.0 13.2 8.9 59 4.2 SW 19 26 10 14 - 1014.0 0.0
22/11:00pm 16.8 14.4 10.2 65 3.5 SW 13 24 7 13 - 1011.9 0.0
22/10:30pm 16.6 14.4 10.7 68 3.1 SSW 13 24 7 13 - 1014.5 0.0
22/10:00pm 16.6 14.4 10.7 68 3.1 SW 13 22 7 12 - 1012.2 0.0
22/09:30pm 17.3 15.1 9.2 59 4.2 WSW 11 22 6 12 - 1014.6 0.0
22/09:00pm 17.1 15.1 8.8 58 4.3 WSW 9 20 5 11 - 1012.0 0.0
22/08:30pm 17.3 14.2 9.0 58 4.3 WSW 15 22 8 12 - 1012.0 0.0
22/08:00pm 17.3 13.9 9.0 58 4.3 WSW 17 30 9 16 - 1011.9 0.0
22/07:30pm 17.2 13.5 9.6 61 4.0 SW 19 28 10 15 - 1011.8 0.0
22/07:00pm 17.5 14.2 9.7 60 4.1 SW 17 32 9 17 - 1011.6 0.0
22/06:30pm 17.7 14.6 10.3 62 3.9 WSW 17 26 9 14 - 1011.4 0.0
22/06:00pm 17.6 14.4 10.0 61 4.0 WSW 17 28 9 15 - 1011.0 0.0
22/05:30pm 18.6 15.2 10.7 60 4.3 W 19 28 10 15 - 1010.7 0.0
22/05:00pm 18.8 15.3 10.9 60 4.3 W 20 32 11 17 - 1010.5 0.0
22/04:30pm 19.3 15.5 11.1 59 4.5 W 22 30 12 16 - 1012.1 0.0
22/04:00pm 20.1 16.3 11.3 57 4.8 WSW 22 32 12 17 - 1010.6 0.0
22/03:30pm 20.0 16.2 11.0 56 4.9 WSW 22 32 12 17 - 1010.5 0.0
22/03:00pm 20.6 16.9 11.5 56 5.0 W 22 32 12 17 - 1010.7 0.0
22/02:30pm 20.4 17.0 11.3 56 5.0 W 20 28 11 15 - 1010.7 0.0
22/02:00pm 20.6 17.9 12.8 61 4.4 W 19 28 10 15 - 1010.8 0.0
22/01:30pm 20.5 17.7 13.2 63 4.2 WNW 20 32 11 17 - 1010.9 0.0
22/01:00pm 20.5 18.1 13.9 66 3.8 W 19 26 10 14 - 1010.8 0.0
22/12:30pm 19.6 17.0 13.1 66 3.7 W 19 28 10 15 - 1014.2 0.0
22/12:00pm 19.8 17.2 13.7 68 3.5 W 20 30 11 16 - 1011.0 0.0
22/11:30am 19.3 16.4 12.3 64 3.9 W 19 26 10 14 - 1011.3 0.0
22/11:00am 19.4 16.8 11.9 62 4.2 WNW 17 26 9 14 - 1011.6 0.0
22/10:30am 18.7 15.9 13.1 70 3.2 W 20 30 11 16 - 1013.1 0.0
22/10:00am 19.2 16.7 12.2 64 3.9 SW 17 30 9 16 - 1011.9 0.0
22/09:30am 19.2 17.1 11.3 60 4.3 SW 13 19 7 10 - 1011.9 0.0
22/09:00am 19.0 17.9 11.8 63 4.0 SW 9 17 5 9 - 1014.2 1.2
22/08:30am 17.8 17.1 12.0 69 3.2 WSW 7 13 4 7 - 1012.0 1.2
22/08:00am 17.8 17.9 13.9 78 2.2 SSW 6 11 3 6 - 1012.0 1.2
22/07:30am 16.5 16.7 13.2 81 1.8 SSW 4 7 2 4 - 1012.0 1.2
22/07:00am 15.7 16.7 13.2 85 1.4 CALM 0 0 0 0 - 1011.8 1.2
22/06:30am 14.7 15.7 13.2 91 0.8 CALM 0 0 0 0 - 1011.4 1.2
22/06:00am 14.0 14.8 12.7 92 0.7 CALM 0 0 0 0 - 1013.3 1.2
22/05:30am 13.6 13.1 12.2 91 0.8 S 6 7 3 4 - 1011.0 0.8
22/05:00am 13.7 13.2 11.9 89 1.0 S 6 9 3 5 - 1010.6 0.8
22/04:30am 13.6 13.5 12.0 90 0.9 SE 4 7 2 4 - 1012.6 0.4
22/04:00am 13.9 13.4 12.1 89 1.0 ESE 6 6 3 3 - 1009.9 0.4
22/03:30am 14.2 13.7 12.2 88 1.1 SE 6 9 3 5 - 1009.8 0.4
22/03:00am 14.6 14.8 13.0 90 0.9 W 4 7 2 4 - 1011.1 0.4
22/02:30am 14.4 15.2 12.4 88 1.1 CALM 0 4 0 2 - 1009.6 0.4
22/02:00am 14.4 14.4 12.4 88 1.1 E 4 6 2 3 - 1009.7 0.2
22/01:30am 14.5 14.9 12.4 87 1.1 SE 2 4 1 2 - 1009.7 0.2
22/01:00am 14.4 14.4 12.4 88 1.1 E 4 7 2 4 - 1009.7 0.2
22/12:30am 14.3 14.3 12.5 89 1.0 E 4 6 2 3 - 1009.9 0.2
22/12:00am 14.3 14.0 12.7 90 0.9 ESE 6 7 3 4 - 1012.0 0.2
 
Date/Time
WST
Temp
°C
App
Temp
°C
Dew
Point
Rel
Hum
%
Delta-T
°C
Wind Press
QNH
hPa
Press
MSL
hPa
Rain
since 9 am
mm
Dir
 
Spd
km/h
Gust
km/h
Spd
kts
Gust
kts
21/11:30pm 14.4 14.8 12.6 89 1.0 ESE 2 4 1 2 - 1010.3 0.2
21/11:00pm 14.8 14.3 12.7 87 1.2 S 7 13 4 7 - 1010.4 0.2
21/10:30pm 14.8 14.6 13.0 89 1.0 SE 6 7 3 4 - 1013.3 0.0
21/10:00pm 14.9 15.5 13.1 89 1.0 S 2 6 1 3 - 1010.5 0.0
21/09:30pm 15.0 14.6 12.5 85 1.4 SW 6 11 3 6 - 1010.4 0.0
21/09:00pm 15.9 13.6 11.9 77 2.2 WSW 15 26 8 14 - 1012.0 0.0
21/08:30pm 17.4 14.7 11.7 69 3.1 W 17 26 9 14 - 1010.0 0.0
21/08:00pm 17.6 15.3 11.6 68 3.3 WSW 15 22 8 12 - 1009.7 0.0
21/07:30pm 17.6 15.6 11.4 67 3.4 WSW 13 20 7 11 - 1011.5 0.0
21/07:00pm 17.4 14.8 12.1 71 2.9 WSW 17 28 9 15 - 1009.5 0.0
21/06:30pm 17.9 15.5 11.5 66 3.5 W 15 24 8 13 - 1010.7 0.0
21/06:00pm 19.1 15.9 11.4 61 4.2 W 19 28 10 15 - 1008.8 0.0
21/05:30pm 18.9 16.0 11.0 60 4.3 W 17 26 9 14 - 1008.4 0.0
21/05:00pm 19.1 17.2 11.7 62 4.1 W 13 24 7 13 - 1008.0 0.0
21/04:30pm 19.5 16.4 11.5 60 4.4 W 19 30 10 16 - 1011.5 0.0
21/04:00pm 19.8 16.5 11.6 59 4.5 W 20 33 11 18 - 1007.6 0.0
21/03:30pm 19.9 16.6 11.7 59 4.5 W 20 32 11 17 - 1007.5 0.0
21/03:00pm 20.9 17.3 10.7 52 5.6 W 20 28 11 15 - 1009.8 0.0
21/02:30pm 20.2 16.4 11.1 56 5.0 W 22 30 12 16 - 1007.3 0.0
21/02:00pm 20.6 16.2 10.4 52 5.5 W 24 33 13 18 - 1007.5 0.0
21/01:30pm 20.4 16.4 10.5 53 5.4 W 22 32 12 17 - 1011.4 0.0

Other Formats:

Comma delimited format used in spreadsheet applications
http://www.bom.gov.au/fwo/IDW60801/IDW60801.94604.axf

JavaScript Object Notation format (JSON) in row-major order
http://www.bom.gov.au/fwo/IDW60801/IDW60801.94604.json